sensor_id;sensor_type;location;lat;lon;timestamp;P1;durP1;ratioP1;P2;durP2;ratioP2
9761;SDS011;4920;49.594;11.022;2023-02-07T00:01:34;22.10;;;14.37;;
9761;SDS011;4920;49.594;11.022;2023-02-07T00:04:03;25.47;;;14.80;;
9761;SDS011;4920;49.594;11.022;2023-02-07T00:06:32;25.13;;;14.67;;
9761;SDS011;4920;49.594;11.022;2023-02-07T00:09:03;25.50;;;14.40;;
9761;SDS011;4920;49.594;11.022;2023-02-07T00:11:34;23.47;;;14.20;;
9761;SDS011;4920;49.594;11.022;2023-02-07T00:14:08;25.53;;;14.43;;
9761;SDS011;4920;49.594;11.022;2023-02-07T00:16:38;24.07;;;14.73;;
9761;SDS011;4920;49.594;11.022;2023-02-07T00:19:08;23.10;;;14.33;;
9761;SDS011;4920;49.594;11.022;2023-02-07T00:21:36;23.63;;;14.43;;
9761;SDS011;4920;49.594;11.022;2023-02-07T00:24:05;23.23;;;14.20;;
9761;SDS011;4920;49.594;11.022;2023-02-07T00:26:34;22.00;;;13.97;;
9761;SDS011;4920;49.594;11.022;2023-02-07T00:29:03;24.00;;;15.17;;
9761;SDS011;4920;49.594;11.022;2023-02-07T00:31:33;20.80;;;12.93;;
9761;SDS011;4920;49.594;11.022;2023-02-07T00:34:03;22.37;;;14.10;;
9761;SDS011;4920;49.594;11.022;2023-02-07T00:36:34;23.83;;;13.87;;
9761;SDS011;4920;49.594;11.022;2023-02-07T00:39:05;23.63;;;14.30;;
9761;SDS011;4920;49.594;11.022;2023-02-07T00:41:34;24.30;;;14.80;;
9761;SDS011;4920;49.594;11.022;2023-02-07T00:44:03;24.13;;;14.63;;
9761;SDS011;4920;49.594;11.022;2023-02-07T00:46:34;23.83;;;13.70;;
9761;SDS011;4920;49.594;11.022;2023-02-07T00:49:03;24.33;;;13.20;;
9761;SDS011;4920;49.594;11.022;2023-02-07T00:51:33;24.50;;;14.90;;
9761;SDS011;4920;49.594;11.022;2023-02-07T00:54:01;22.07;;;13.97;;
9761;SDS011;4920;49.594;11.022;2023-02-07T00:56:31;25.10;;;14.77;;
9761;SDS011;4920;49.594;11.022;2023-02-07T00:59:00;22.17;;;14.10;;
9761;SDS011;4920;49.594;11.022;2023-02-07T01:01:29;22.27;;;14.93;;
9761;SDS011;4920;49.594;11.022;2023-02-07T01:03:59;23.33;;;14.83;;
9761;SDS011;4920;49.594;11.022;2023-02-07T01:06:28;23.90;;;14.10;;
9761;SDS011;4920;49.594;11.022;2023-02-07T01:08:59;23.80;;;14.30;;
9761;SDS011;4920;49.594;11.022;2023-02-07T01:11:29;24.43;;;14.53;;
9761;SDS011;4920;49.594;11.022;2023-02-07T01:13:58;25.10;;;14.70;;
9761;SDS011;4920;49.594;11.022;2023-02-07T01:16:28;24.67;;;15.53;;
9761;SDS011;4920;49.594;11.022;2023-02-07T01:19:01;26.43;;;15.07;;
9761;SDS011;4920;49.594;11.022;2023-02-07T01:21:31;25.00;;;14.60;;
9761;SDS011;4920;49.594;11.022;2023-02-07T01:23:59;26.40;;;14.40;;
9761;SDS011;4920;49.594;11.022;2023-02-07T01:26:28;26.70;;;15.93;;
9761;SDS011;4920;49.594;11.022;2023-02-07T01:28:57;23.57;;;15.37;;
9761;SDS011;4920;49.594;11.022;2023-02-07T01:31:25;22.53;;;15.23;;
9761;SDS011;4920;49.594;11.022;2023-02-07T01:33:54;27.57;;;16.20;;
9761;SDS011;4920;49.594;11.022;2023-02-07T01:36:26;28.23;;;15.90;;
9761;SDS011;4920;49.594;11.022;2023-02-07T01:38:56;23.67;;;15.27;;
9761;SDS011;4920;49.594;11.022;2023-02-07T01:41:26;25.70;;;15.50;;
9761;SDS011;4920;49.594;11.022;2023-02-07T01:43:56;23.87;;;15.17;;
9761;SDS011;4920;49.594;11.022;2023-02-07T01:46:28;28.17;;;15.67;;
9761;SDS011;4920;49.594;11.022;2023-02-07T01:48:59;26.30;;;15.47;;
9761;SDS011;4920;49.594;11.022;2023-02-07T01:51:33;26.93;;;16.03;;
9761;SDS011;4920;49.594;11.022;2023-02-07T01:54:03;26.53;;;15.30;;
9761;SDS011;4920;49.594;11.022;2023-02-07T01:56:36;25.97;;;15.93;;
9761;SDS011;4920;49.594;11.022;2023-02-07T01:59:08;25.83;;;15.37;;
9761;SDS011;4920;49.594;11.022;2023-02-07T02:01:38;27.67;;;16.40;;
9761;SDS011;4920;49.594;11.022;2023-02-07T02:04:08;30.47;;;16.10;;
9761;SDS011;4920;49.594;11.022;2023-02-07T02:06:39;28.83;;;16.63;;
9761;SDS011;4920;49.594;11.022;2023-02-07T02:09:09;28.07;;;16.57;;
9761;SDS011;4920;49.594;11.022;2023-02-07T02:11:54;28.07;;;16.73;;
9761;SDS011;4920;49.594;11.022;2023-02-07T02:14:41;31.90;;;18.03;;
9761;SDS011;4920;49.594;11.022;2023-02-07T02:17:23;33.33;;;17.17;;
9761;SDS011;4920;49.594;11.022;2023-02-07T02:35:18;29.87;;;17.23;;
9761;SDS011;4920;49.594;11.022;2023-02-07T02:37:51;31.10;;;16.67;;
9761;SDS011;4920;49.594;11.022;2023-02-07T02:40:28;32.57;;;18.80;;
9761;SDS011;4920;49.594;11.022;2023-02-07T02:43:03;29.37;;;17.37;;
9761;SDS011;4920;49.594;11.022;2023-02-07T02:45:35;29.97;;;17.50;;
9761;SDS011;4920;49.594;11.022;2023-02-07T02:48:09;29.57;;;17.83;;
9761;SDS011;4920;49.594;11.022;2023-02-07T02:50:39;35.27;;;18.93;;
9761;SDS011;4920;49.594;11.022;2023-02-07T02:53:13;33.47;;;17.77;;
9761;SDS011;4920;49.594;11.022;2023-02-07T02:55:48;30.27;;;17.47;;
9761;SDS011;4920;49.594;11.022;2023-02-07T02:58:41;33.63;;;18.80;;
9761;SDS011;4920;49.594;11.022;2023-02-07T03:01:22;31.93;;;19.30;;
9761;SDS011;4920;49.594;11.022;2023-02-07T03:04:14;34.23;;;18.83;;
9761;SDS011;4920;49.594;11.022;2023-02-07T03:07:03;33.07;;;19.83;;
9761;SDS011;4920;49.594;11.022;2023-02-07T03:09:46;31.70;;;18.37;;
9761;SDS011;4920;49.594;11.022;2023-02-07T03:12:22;33.47;;;18.80;;
9761;SDS011;4920;49.594;11.022;2023-02-07T03:15:00;32.67;;;19.63;;
9761;SDS011;4920;49.594;11.022;2023-02-07T03:17:36;35.80;;;20.03;;
9761;SDS011;4920;49.594;11.022;2023-02-07T03:20:16;32.57;;;20.13;;
9761;SDS011;4920;49.594;11.022;2023-02-07T03:22:49;34.00;;;19.97;;
9761;SDS011;4920;49.594;11.022;2023-02-07T03:25:21;35.07;;;20.97;;
9761;SDS011;4920;49.594;11.022;2023-02-07T03:27:51;36.60;;;20.03;;
9761;SDS011;4920;49.594;11.022;2023-02-07T03:30:22;36.60;;;20.87;;
9761;SDS011;4920;49.594;11.022;2023-02-07T03:32:54;36.33;;;19.60;;
9761;SDS011;4920;49.594;11.022;2023-02-07T03:35:28;38.90;;;21.07;;
9761;SDS011;4920;49.594;11.022;2023-02-07T03:38:00;35.67;;;20.93;;
9761;SDS011;4920;49.594;11.022;2023-02-07T03:40:32;31.33;;;19.77;;
9761;SDS011;4920;49.594;11.022;2023-02-07T03:43:05;37.77;;;20.70;;
9761;SDS011;4920;49.594;11.022;2023-02-07T03:45:36;34.47;;;20.43;;
9761;SDS011;4920;49.594;11.022;2023-02-07T03:48:05;37.97;;;20.40;;
9761;SDS011;4920;49.594;11.022;2023-02-07T03:50:36;36.17;;;20.53;;
9761;SDS011;4920;49.594;11.022;2023-02-07T03:53:05;35.87;;;20.33;;
9761;SDS011;4920;49.594;11.022;2023-02-07T03:55:34;35.00;;;20.20;;
9761;SDS011;4920;49.594;11.022;2023-02-07T03:58:03;36.07;;;20.10;;
9761;SDS011;4920;49.594;11.022;2023-02-07T04:00:34;34.40;;;20.90;;
9761;SDS011;4920;49.594;11.022;2023-02-07T04:03:03;38.17;;;20.50;;
9761;SDS011;4920;49.594;11.022;2023-02-07T04:05:32;35.73;;;20.67;;
9761;SDS011;4920;49.594;11.022;2023-02-07T04:08:03;37.17;;;20.67;;
9761;SDS011;4920;49.594;11.022;2023-02-07T04:10:32;34.97;;;20.67;;
9761;SDS011;4920;49.594;11.022;2023-02-07T04:13:01;36.83;;;21.10;;
9761;SDS011;4920;49.594;11.022;2023-02-07T04:15:29;35.17;;;20.33;;
9761;SDS011;4920;49.594;11.022;2023-02-07T04:17:58;33.00;;;19.97;;
9761;SDS011;4920;49.594;11.022;2023-02-07T04:20:27;36.37;;;20.50;;
9761;SDS011;4920;49.594;11.022;2023-02-07T04:22:55;36.13;;;19.97;;
9761;SDS011;4920;49.594;11.022;2023-02-07T04:25:26;35.10;;;20.43;;
9761;SDS011;4920;49.594;11.022;2023-02-07T04:27:54;35.97;;;20.63;;
9761;SDS011;4920;49.594;11.022;2023-02-07T04:30:25;36.53;;;20.57;;
9761;SDS011;4920;49.594;11.022;2023-02-07T04:32:54;36.87;;;20.40;;
9761;SDS011;4920;49.594;11.022;2023-02-07T04:35:22;34.90;;;20.53;;
9761;SDS011;4920;49.594;11.022;2023-02-07T04:37:51;34.83;;;20.90;;
9761;SDS011;4920;49.594;11.022;2023-02-07T04:40:19;34.70;;;20.60;;
9761;SDS011;4920;49.594;11.022;2023-02-07T04:42:49;37.33;;;20.13;;
9761;SDS011;4920;49.594;11.022;2023-02-07T04:45:18;34.27;;;20.40;;
9761;SDS011;4920;49.594;11.022;2023-02-07T04:47:47;38.73;;;21.60;;
9761;SDS011;4920;49.594;11.022;2023-02-07T04:50:16;36.97;;;21.20;;
9761;SDS011;4920;49.594;11.022;2023-02-07T04:52:44;37.33;;;21.43;;
9761;SDS011;4920;49.594;11.022;2023-02-07T04:55:13;34.33;;;19.93;;
9761;SDS011;4920;49.594;11.022;2023-02-07T04:57:42;37.70;;;20.10;;
9761;SDS011;4920;49.594;11.022;2023-02-07T05:00:12;35.73;;;19.97;;
9761;SDS011;4920;49.594;11.022;2023-02-07T05:02:43;38.83;;;20.53;;
9761;SDS011;4920;49.594;11.022;2023-02-07T05:05:12;33.67;;;19.00;;
9761;SDS011;4920;49.594;11.022;2023-02-07T05:07:40;40.87;;;20.67;;
9761;SDS011;4920;49.594;11.022;2023-02-07T05:10:09;34.57;;;20.80;;
9761;SDS011;4920;49.594;11.022;2023-02-07T05:12:38;37.03;;;21.17;;
9761;SDS011;4920;49.594;11.022;2023-02-07T05:15:06;36.90;;;20.97;;
9761;SDS011;4920;49.594;11.022;2023-02-07T05:17:37;37.80;;;21.63;;
9761;SDS011;4920;49.594;11.022;2023-02-07T05:20:07;39.17;;;21.70;;
9761;SDS011;4920;49.594;11.022;2023-02-07T05:22:36;40.00;;;21.57;;
9761;SDS011;4920;49.594;11.022;2023-02-07T05:25:05;43.90;;;23.17;;
9761;SDS011;4920;49.594;11.022;2023-02-07T05:27:34;38.50;;;21.97;;
9761;SDS011;4920;49.594;11.022;2023-02-07T05:30:03;42.80;;;23.03;;
9761;SDS011;4920;49.594;11.022;2023-02-07T05:32:32;42.47;;;22.70;;
9761;SDS011;4920;49.594;11.022;2023-02-07T05:35:20;40.00;;;22.40;;
9761;SDS011;4920;49.594;11.022;2023-02-07T05:37:49;42.73;;;22.57;;
9761;SDS011;4920;49.594;11.022;2023-02-07T05:40:18;42.27;;;22.67;;
9761;SDS011;4920;49.594;11.022;2023-02-07T05:42:47;39.90;;;22.23;;
9761;SDS011;4920;49.594;11.022;2023-02-07T05:45:16;39.50;;;22.33;;
9761;SDS011;4920;49.594;11.022;2023-02-07T05:47:45;38.87;;;21.63;;
9761;SDS011;4920;49.594;11.022;2023-02-07T05:50:14;41.10;;;21.40;;
9761;SDS011;4920;49.594;11.022;2023-02-07T05:52:45;38.03;;;22.07;;
9761;SDS011;4920;49.594;11.022;2023-02-07T05:59:00;35.57;;;20.10;;
9761;SDS011;4920;49.594;11.022;2023-02-07T06:01:28;39.03;;;21.27;;
9761;SDS011;4920;49.594;11.022;2023-02-07T06:03:57;38.07;;;21.67;;
9761;SDS011;4920;49.594;11.022;2023-02-07T06:06:26;41.20;;;21.63;;
9761;SDS011;4920;49.594;11.022;2023-02-07T06:08:56;40.53;;;21.97;;
9761;SDS011;4920;49.594;11.022;2023-02-07T06:11:25;37.20;;;21.93;;
9761;SDS011;4920;49.594;11.022;2023-02-07T06:13:53;39.30;;;22.70;;
9761;SDS011;4920;49.594;11.022;2023-02-07T06:16:22;41.63;;;22.77;;
9761;SDS011;4920;49.594;11.022;2023-02-07T06:18:51;45.47;;;23.67;;
9761;SDS011;4920;49.594;11.022;2023-02-07T06:21:20;40.27;;;22.90;;
9761;SDS011;4920;49.594;11.022;2023-02-07T06:26:49;40.93;;;22.23;;
9761;SDS011;4920;49.594;11.022;2023-02-07T06:29:17;40.50;;;22.73;;
9761;SDS011;4920;49.594;11.022;2023-02-07T06:31:46;42.77;;;22.63;;
9761;SDS011;4920;49.594;11.022;2023-02-07T06:34:15;42.80;;;23.37;;
9761;SDS011;4920;49.594;11.022;2023-02-07T06:36:44;41.27;;;23.10;;
9761;SDS011;4920;49.594;11.022;2023-02-07T06:39:13;42.33;;;23.53;;
9761;SDS011;4920;49.594;11.022;2023-02-07T06:41:44;51.03;;;26.30;;
9761;SDS011;4920;49.594;11.022;2023-02-07T06:44:13;46.80;;;24.60;;
9761;SDS011;4920;49.594;11.022;2023-02-07T06:46:42;43.37;;;23.30;;
9761;SDS011;4920;49.594;11.022;2023-02-07T06:49:11;43.33;;;23.67;;
9761;SDS011;4920;49.594;11.022;2023-02-07T06:51:40;46.40;;;24.50;;
9761;SDS011;4920;49.594;11.022;2023-02-07T06:54:09;42.27;;;23.30;;
9761;SDS011;4920;49.594;11.022;2023-02-07T06:56:39;44.10;;;24.57;;
9761;SDS011;4920;49.594;11.022;2023-02-07T06:59:10;46.33;;;24.67;;
9761;SDS011;4920;49.594;11.022;2023-02-07T07:01:39;45.50;;;24.87;;
9761;SDS011;4920;49.594;11.022;2023-02-07T07:04:08;43.20;;;25.00;;
9761;SDS011;4920;49.594;11.022;2023-02-07T07:06:37;47.83;;;26.27;;
9761;SDS011;4920;49.594;11.022;2023-02-07T07:09:06;45.17;;;25.20;;
9761;SDS011;4920;49.594;11.022;2023-02-07T07:11:35;50.27;;;25.33;;
9761;SDS011;4920;49.594;11.022;2023-02-07T07:14:10;43.80;;;23.53;;
9761;SDS011;4920;49.594;11.022;2023-02-07T07:16:39;44.17;;;24.43;;
9761;SDS011;4920;49.594;11.022;2023-02-07T07:19:08;46.27;;;24.23;;
9761;SDS011;4920;49.594;11.022;2023-02-07T07:21:37;39.67;;;23.20;;
9761;SDS011;4920;49.594;11.022;2023-02-07T07:24:06;41.07;;;23.97;;
9761;SDS011;4920;49.594;11.022;2023-02-07T07:26:35;38.17;;;22.90;;
9761;SDS011;4920;49.594;11.022;2023-02-07T07:29:16;37.73;;;22.03;;
9761;SDS011;4920;49.594;11.022;2023-02-07T07:31:46;38.30;;;21.80;;
9761;SDS011;4920;49.594;11.022;2023-02-07T07:34:15;40.00;;;20.07;;
9761;SDS011;4920;49.594;11.022;2023-02-07T07:36:43;34.80;;;20.97;;
9761;SDS011;4920;49.594;11.022;2023-02-07T07:39:12;38.73;;;21.53;;
9761;SDS011;4920;49.594;11.022;2023-02-07T07:41:42;36.10;;;21.10;;
9761;SDS011;4920;49.594;11.022;2023-02-07T07:44:27;36.63;;;20.87;;
9761;SDS011;4920;49.594;11.022;2023-02-07T07:46:59;37.10;;;21.57;;
9761;SDS011;4920;49.594;11.022;2023-02-07T07:49:29;38.80;;;21.10;;
9761;SDS011;4920;49.594;11.022;2023-02-07T07:51:58;37.00;;;21.63;;
9761;SDS011;4920;49.594;11.022;2023-02-07T07:54:27;36.43;;;21.57;;
9761;SDS011;4920;49.594;11.022;2023-02-07T07:56:56;36.73;;;21.23;;
9761;SDS011;4920;49.594;11.022;2023-02-07T07:59:25;39.87;;;22.27;;
9761;SDS011;4920;49.594;11.022;2023-02-07T08:01:55;37.20;;;21.13;;
9761;SDS011;4920;49.594;11.022;2023-02-07T08:04:24;40.10;;;23.33;;
9761;SDS011;4920;49.594;11.022;2023-02-07T08:06:53;35.03;;;20.23;;
9761;SDS011;4920;49.594;11.022;2023-02-07T08:09:23;34.07;;;20.63;;
9761;SDS011;4920;49.594;11.022;2023-02-07T08:11:51;34.13;;;20.47;;
9761;SDS011;4920;49.594;11.022;2023-02-07T08:14:20;35.43;;;20.40;;
9761;SDS011;4920;49.594;11.022;2023-02-07T08:16:50;32.27;;;18.83;;
9761;SDS011;4920;49.594;11.022;2023-02-07T08:19:19;34.27;;;20.63;;
9761;SDS011;4920;49.594;11.022;2023-02-07T08:21:47;28.77;;;17.30;;
9761;SDS011;4920;49.594;11.022;2023-02-07T08:24:16;32.63;;;19.13;;
9761;SDS011;4920;49.594;11.022;2023-02-07T08:26:45;33.27;;;19.17;;
9761;SDS011;4920;49.594;11.022;2023-02-07T08:29:14;29.13;;;18.37;;
9761;SDS011;4920;49.594;11.022;2023-02-07T08:31:42;29.80;;;17.50;;
9761;SDS011;4920;49.594;11.022;2023-02-07T08:34:14;27.87;;;17.27;;
9761;SDS011;4920;49.594;11.022;2023-02-07T08:36:44;27.97;;;17.33;;
9761;SDS011;4920;49.594;11.022;2023-02-07T08:39:13;28.57;;;17.20;;
9761;SDS011;4920;49.594;11.022;2023-02-07T08:41:42;27.93;;;17.20;;
9761;SDS011;4920;49.594;11.022;2023-02-07T08:44:11;27.73;;;16.77;;
9761;SDS011;4920;49.594;11.022;2023-02-07T08:46:39;31.93;;;17.70;;
9761;SDS011;4920;49.594;11.022;2023-02-07T08:49:08;28.27;;;17.13;;
9761;SDS011;4920;49.594;11.022;2023-02-07T08:51:38;28.13;;;17.10;;
9761;SDS011;4920;49.594;11.022;2023-02-07T08:54:08;28.47;;;16.93;;
9761;SDS011;4920;49.594;11.022;2023-02-07T08:56:37;29.87;;;17.27;;
9761;SDS011;4920;49.594;11.022;2023-02-07T08:59:06;30.23;;;17.07;;
9761;SDS011;4920;49.594;11.022;2023-02-07T09:01:34;27.83;;;17.07;;
9761;SDS011;4920;49.594;11.022;2023-02-07T09:04:03;29.10;;;17.10;;
9761;SDS011;4920;49.594;11.022;2023-02-07T09:06:32;27.87;;;16.57;;
9761;SDS011;4920;49.594;11.022;2023-02-07T09:09:02;26.50;;;16.63;;
9761;SDS011;4920;49.594;11.022;2023-02-07T09:11:31;26.53;;;17.23;;
9761;SDS011;4920;49.594;11.022;2023-02-07T09:14:00;28.73;;;17.00;;
9761;SDS011;4920;49.594;11.022;2023-02-07T09:16:29;29.63;;;16.57;;
9761;SDS011;4920;49.594;11.022;2023-02-07T09:18:58;28.27;;;16.83;;
9761;SDS011;4920;49.594;11.022;2023-02-07T09:21:27;27.07;;;16.53;;
9761;SDS011;4920;49.594;11.022;2023-02-07T09:23:57;29.03;;;16.67;;
9761;SDS011;4920;49.594;11.022;2023-02-07T09:26:27;26.63;;;16.67;;
9761;SDS011;4920;49.594;11.022;2023-02-07T09:28:59;29.57;;;17.07;;
9761;SDS011;4920;49.594;11.022;2023-02-07T09:31:28;28.97;;;16.80;;
9761;SDS011;4920;49.594;11.022;2023-02-07T09:33:58;24.20;;;14.27;;
9761;SDS011;4920;49.594;11.022;2023-02-07T09:36:28;25.60;;;15.27;;
9761;SDS011;4920;49.594;11.022;2023-02-07T09:39:01;22.73;;;14.80;;
9761;SDS011;4920;49.594;11.022;2023-02-07T09:41:38;25.40;;;15.57;;
9761;SDS011;4920;49.594;11.022;2023-02-07T09:44:13;25.43;;;14.50;;
9761;SDS011;4920;49.594;11.022;2023-02-07T09:46:48;23.77;;;13.70;;
9761;SDS011;4920;49.594;11.022;2023-02-07T09:49:32;26.07;;;14.07;;
9761;SDS011;4920;49.594;11.022;2023-02-07T09:52:04;20.47;;;13.60;;
9761;SDS011;4920;49.594;11.022;2023-02-07T09:54:39;23.23;;;14.33;;
9761;SDS011;4920;49.594;11.022;2023-02-07T09:57:12;22.20;;;14.33;;
9761;SDS011;4920;49.594;11.022;2023-02-07T09:59:47;21.77;;;14.27;;
9761;SDS011;4920;49.594;11.022;2023-02-07T10:02:21;23.67;;;14.73;;
9761;SDS011;4920;49.594;11.022;2023-02-07T10:04:54;20.93;;;13.40;;
9761;SDS011;4920;49.594;11.022;2023-02-07T10:07:27;23.23;;;13.87;;
9761;SDS011;4920;49.594;11.022;2023-02-07T10:09:56;20.50;;;13.30;;
9761;SDS011;4920;49.594;11.022;2023-02-07T10:12:34;23.20;;;13.80;;
9761;SDS011;4920;49.594;11.022;2023-02-07T10:15:19;27.97;;;14.50;;
9761;SDS011;4920;49.594;11.022;2023-02-07T10:18:11;23.77;;;13.37;;
9761;SDS011;4920;49.594;11.022;2023-02-07T10:20:57;21.07;;;12.73;;
9761;SDS011;4920;49.594;11.022;2023-02-07T10:23:37;32.63;;;13.07;;
9761;SDS011;4920;49.594;11.022;2023-02-07T10:26:21;23.47;;;12.90;;
9761;SDS011;4920;49.594;11.022;2023-02-07T10:29:15;21.87;;;12.83;;
9761;SDS011;4920;49.594;11.022;2023-02-07T10:31:52;26.13;;;13.57;;
9761;SDS011;4920;49.594;11.022;2023-02-07T10:34:27;23.07;;;13.40;;
9761;SDS011;4920;49.594;11.022;2023-02-07T10:37:05;23.37;;;13.10;;
9761;SDS011;4920;49.594;11.022;2023-02-07T10:39:45;17.77;;;11.97;;
9761;SDS011;4920;49.594;11.022;2023-02-07T10:42:20;22.80;;;11.50;;
9761;SDS011;4920;49.594;11.022;2023-02-07T10:44:51;21.77;;;11.37;;
9761;SDS011;4920;49.594;11.022;2023-02-07T10:47:19;18.00;;;10.87;;
9761;SDS011;4920;49.594;11.022;2023-02-07T10:49:48;21.37;;;11.57;;
9761;SDS011;4920;49.594;11.022;2023-02-07T10:52:25;19.37;;;10.87;;
9761;SDS011;4920;49.594;11.022;2023-02-07T10:54:56;23.37;;;11.07;;
9761;SDS011;4920;49.594;11.022;2023-02-07T10:57:27;17.70;;;10.47;;
9761;SDS011;4920;49.594;11.022;2023-02-07T10:59:59;19.70;;;10.73;;
9761;SDS011;4920;49.594;11.022;2023-02-07T11:02:34;16.27;;;9.90;;
9761;SDS011;4920;49.594;11.022;2023-02-07T11:05:40;17.87;;;10.67;;
9761;SDS011;4920;49.594;11.022;2023-02-07T11:08:22;17.63;;;10.57;;
9761;SDS011;4920;49.594;11.022;2023-02-07T11:10:54;16.60;;;10.60;;
9761;SDS011;4920;49.594;11.022;2023-02-07T11:13:25;14.83;;;10.20;;
9761;SDS011;4920;49.594;11.022;2023-02-07T11:15:58;18.23;;;11.23;;
9761;SDS011;4920;49.594;11.022;2023-02-07T11:18:35;21.47;;;10.80;;
9761;SDS011;4920;49.594;11.022;2023-02-07T11:21:25;17.17;;;10.40;;
9761;SDS011;4920;49.594;11.022;2023-02-07T11:23:57;15.60;;;10.47;;
9761;SDS011;4920;49.594;11.022;2023-02-07T11:26:28;18.83;;;10.80;;
9761;SDS011;4920;49.594;11.022;2023-02-07T11:29:04;32.60;;;12.00;;
9761;SDS011;4920;49.594;11.022;2023-02-07T11:31:41;19.13;;;9.93;;
9761;SDS011;4920;49.594;11.022;2023-02-07T11:34:25;13.63;;;9.30;;
9761;SDS011;4920;49.594;11.022;2023-02-07T11:37:22;16.47;;;9.70;;
9761;SDS011;4920;49.594;11.022;2023-02-07T11:39:57;19.50;;;8.90;;
9761;SDS011;4920;49.594;11.022;2023-02-07T11:42:48;13.97;;;8.83;;
9761;SDS011;4920;49.594;11.022;2023-02-07T11:45:23;11.77;;;8.40;;
9761;SDS011;4920;49.594;11.022;2023-02-07T11:47:55;14.23;;;7.97;;
9761;SDS011;4920;49.594;11.022;2023-02-07T11:50:25;14.40;;;7.97;;
9761;SDS011;4920;49.594;11.022;2023-02-07T11:52:57;11.43;;;7.67;;
9761;SDS011;4920;49.594;11.022;2023-02-07T11:55:29;12.47;;;8.20;;
9761;SDS011;4920;49.594;11.022;2023-02-07T11:58:01;12.73;;;7.40;;
9761;SDS011;4920;49.594;11.022;2023-02-07T12:00:36;16.13;;;7.90;;
9761;SDS011;4920;49.594;11.022;2023-02-07T12:03:07;10.03;;;6.77;;
9761;SDS011;4920;49.594;11.022;2023-02-07T12:05:49;8.83;;;5.70;;
9761;SDS011;4920;49.594;11.022;2023-02-07T12:08:21;23.87;;;7.00;;
9761;SDS011;4920;49.594;11.022;2023-02-07T12:10:55;14.40;;;7.00;;
9761;SDS011;4920;49.594;11.022;2023-02-07T12:13:28;10.30;;;5.67;;
9761;SDS011;4920;49.594;11.022;2023-02-07T12:16:01;7.97;;;5.93;;
9761;SDS011;4920;49.594;11.022;2023-02-07T12:18:34;12.40;;;6.67;;
9761;SDS011;4920;49.594;11.022;2023-02-07T12:21:10;9.60;;;5.97;;
9761;SDS011;4920;49.594;11.022;2023-02-07T12:23:45;8.60;;;5.80;;
9761;SDS011;4920;49.594;11.022;2023-02-07T12:26:20;13.57;;;6.23;;
9761;SDS011;4920;49.594;11.022;2023-02-07T12:28:58;11.20;;;5.97;;
9761;SDS011;4920;49.594;11.022;2023-02-07T12:31:42;9.03;;;5.80;;
9761;SDS011;4920;49.594;11.022;2023-02-07T12:34:20;13.03;;;5.97;;
9761;SDS011;4920;49.594;11.022;2023-02-07T12:36:55;9.70;;;5.57;;
9761;SDS011;4920;49.594;11.022;2023-02-07T12:39:33;9.13;;;5.10;;
9761;SDS011;4920;49.594;11.022;2023-02-07T12:42:12;11.13;;;5.77;;
9761;SDS011;4920;49.594;11.022;2023-02-07T12:44:54;12.57;;;5.90;;
9761;SDS011;4920;49.594;11.022;2023-02-07T12:47:27;9.13;;;5.43;;
9761;SDS011;4920;49.594;11.022;2023-02-07T12:50:12;13.40;;;5.80;;
9761;SDS011;4920;49.594;11.022;2023-02-07T12:52:50;10.37;;;6.10;;
9761;SDS011;4920;49.594;11.022;2023-02-07T12:55:38;9.27;;;5.83;;
9761;SDS011;4920;49.594;11.022;2023-02-07T12:58:17;9.10;;;6.07;;
9761;SDS011;4920;49.594;11.022;2023-02-07T13:01:01;9.97;;;5.63;;
9761;SDS011;4920;49.594;11.022;2023-02-07T13:03:39;8.40;;;5.60;;
9761;SDS011;4920;49.594;11.022;2023-02-07T13:09:56;7.13;;;5.00;;
9761;SDS011;4920;49.594;11.022;2023-02-07T13:12:35;9.53;;;5.67;;
9761;SDS011;4920;49.594;11.022;2023-02-07T13:15:15;12.63;;;6.23;;
9761;SDS011;4920;49.594;11.022;2023-02-07T13:17:56;8.30;;;5.10;;
9761;SDS011;4920;49.594;11.022;2023-02-07T13:20:37;9.43;;;5.17;;
9761;SDS011;4920;49.594;11.022;2023-02-07T13:23:21;10.43;;;5.83;;
9761;SDS011;4920;49.594;11.022;2023-02-07T13:25:54;9.73;;;5.77;;
9761;SDS011;4920;49.594;11.022;2023-02-07T13:28:28;30.73;;;7.20;;
9761;SDS011;4920;49.594;11.022;2023-02-07T13:31:03;8.17;;;5.30;;
9761;SDS011;4920;49.594;11.022;2023-02-07T13:33:34;6.70;;;5.27;;
9761;SDS011;4920;49.594;11.022;2023-02-07T13:36:10;10.53;;;5.80;;
9761;SDS011;4920;49.594;11.022;2023-02-07T13:38:57;9.43;;;5.83;;
9761;SDS011;4920;49.594;11.022;2023-02-07T13:41:35;7.47;;;5.60;;
9761;SDS011;4920;49.594;11.022;2023-02-07T13:44:13;11.20;;;5.80;;
9761;SDS011;4920;49.594;11.022;2023-02-07T13:46:52;9.40;;;5.70;;
9761;SDS011;4920;49.594;11.022;2023-02-07T13:49:46;10.33;;;5.53;;
9761;SDS011;4920;49.594;11.022;2023-02-07T13:52:22;15.70;;;6.37;;
9761;SDS011;4920;49.594;11.022;2023-02-07T13:55:03;8.73;;;6.03;;
9761;SDS011;4920;49.594;11.022;2023-02-07T13:57:51;9.97;;;5.63;;
9761;SDS011;4920;49.594;11.022;2023-02-07T14:03:41;12.07;;;5.90;;
9761;SDS011;4920;49.594;11.022;2023-02-07T14:06:31;11.00;;;6.00;;
9761;SDS011;4920;49.594;11.022;2023-02-07T14:09:06;10.43;;;5.50;;
9761;SDS011;4920;49.594;11.022;2023-02-07T14:11:43;8.13;;;5.63;;
9761;SDS011;4920;49.594;11.022;2023-02-07T14:16:55;9.23;;;5.50;;
9761;SDS011;4920;49.594;11.022;2023-02-07T14:22:28;7.77;;;5.23;;
9761;SDS011;4920;49.594;11.022;2023-02-07T14:25:18;10.57;;;6.20;;
9761;SDS011;4920;49.594;11.022;2023-02-07T14:28:08;7.30;;;5.37;;
9761;SDS011;4920;49.594;11.022;2023-02-07T14:31:15;7.60;;;5.40;;
9761;SDS011;4920;49.594;11.022;2023-02-07T14:34:08;9.80;;;5.13;;
9761;SDS011;4920;49.594;11.022;2023-02-07T14:36:40;10.97;;;5.47;;
9761;SDS011;4920;49.594;11.022;2023-02-07T14:39:24;14.83;;;6.20;;
9761;SDS011;4920;49.594;11.022;2023-02-07T14:42:00;8.20;;;5.17;;
9761;SDS011;4920;49.594;11.022;2023-02-07T14:44:39;9.47;;;5.80;;
9761;SDS011;4920;49.594;11.022;2023-02-07T14:47:17;12.70;;;5.63;;
9761;SDS011;4920;49.594;11.022;2023-02-07T14:49:54;13.37;;;5.70;;
9761;SDS011;4920;49.594;11.022;2023-02-07T14:52:27;7.87;;;5.60;;
9761;SDS011;4920;49.594;11.022;2023-02-07T14:54:59;8.40;;;5.20;;
9761;SDS011;4920;49.594;11.022;2023-02-07T14:57:35;10.17;;;5.23;;
9761;SDS011;4920;49.594;11.022;2023-02-07T15:00:17;14.47;;;5.43;;
9761;SDS011;4920;49.594;11.022;2023-02-07T15:02:56;14.17;;;5.50;;
9761;SDS011;4920;49.594;11.022;2023-02-07T15:05:31;9.33;;;5.40;;
9761;SDS011;4920;49.594;11.022;2023-02-07T15:08:06;12.70;;;5.87;;
9761;SDS011;4920;49.594;11.022;2023-02-07T15:10:37;10.30;;;6.10;;
9761;SDS011;4920;49.594;11.022;2023-02-07T15:13:15;18.20;;;6.43;;
9761;SDS011;4920;49.594;11.022;2023-02-07T15:15:53;9.43;;;5.30;;
9761;SDS011;4920;49.594;11.022;2023-02-07T15:18:27;8.67;;;5.30;;
9761;SDS011;4920;49.594;11.022;2023-02-07T15:21:00;12.43;;;5.70;;
9761;SDS011;4920;49.594;11.022;2023-02-07T15:23:29;8.40;;;5.23;;
9761;SDS011;4920;49.594;11.022;2023-02-07T15:26:00;13.67;;;5.73;;
9761;SDS011;4920;49.594;11.022;2023-02-07T15:28:33;10.83;;;5.50;;
9761;SDS011;4920;49.594;11.022;2023-02-07T15:31:03;8.73;;;5.20;;
9761;SDS011;4920;49.594;11.022;2023-02-07T15:33:38;8.20;;;5.80;;
9761;SDS011;4920;49.594;11.022;2023-02-07T15:36:26;8.53;;;5.60;;
9761;SDS011;4920;49.594;11.022;2023-02-07T15:39:00;8.30;;;5.23;;
9761;SDS011;4920;49.594;11.022;2023-02-07T15:41:31;12.20;;;6.13;;
9761;SDS011;4920;49.594;11.022;2023-02-07T15:44:02;11.77;;;5.90;;
9761;SDS011;4920;49.594;11.022;2023-02-07T15:46:46;10.13;;;5.73;;
9761;SDS011;4920;49.594;11.022;2023-02-07T15:49:24;10.13;;;5.43;;
9761;SDS011;4920;49.594;11.022;2023-02-07T15:51:56;8.97;;;6.10;;